sensor_id;sensor_type;location;lat;lon;timestamp;temperature;humidity
62904;DHT22;49000;50.698;13.322;2023-07-31T00:00:11;12.80;67.90
62904;DHT22;49000;50.698;13.322;2023-07-31T00:02:36;12.80;67.70
62904;DHT22;49000;50.698;13.322;2023-07-31T00:05:02;12.80;66.10
62904;DHT22;49000;50.698;13.322;2023-07-31T00:07:28;12.70;69.00
62904;DHT22;49000;50.698;13.322;2023-07-31T00:09:53;12.70;67.30
62904;DHT22;49000;50.698;13.322;2023-07-31T00:12:20;12.70;65.90
62904;DHT22;49000;50.698;13.322;2023-07-31T00:14:45;12.70;69.70
62904;DHT22;49000;50.698;13.322;2023-07-31T00:17:11;12.70;67.50
62904;DHT22;49000;50.698;13.322;2023-07-31T00:19:36;12.70;69.90
62904;DHT22;49000;50.698;13.322;2023-07-31T00:22:02;12.60;71.50
62904;DHT22;49000;50.698;13.322;2023-07-31T00:24:28;12.60;70.80
62904;DHT22;49000;50.698;13.322;2023-07-31T00:26:53;12.60;70.40
62904;DHT22;49000;50.698;13.322;2023-07-31T00:29:19;12.60;76.10
62904;DHT22;49000;50.698;13.322;2023-07-31T00:31:44;12.60;81.40
62904;DHT22;49000;50.698;13.322;2023-07-31T00:34:09;12.50;89.70
62904;DHT22;49000;50.698;13.322;2023-07-31T00:36:35;12.50;90.80
62904;DHT22;49000;50.698;13.322;2023-07-31T00:39:01;12.50;90.00
62904;DHT22;49000;50.698;13.322;2023-07-31T00:41:26;12.60;90.20
62904;DHT22;49000;50.698;13.322;2023-07-31T00:43:52;12.50;92.80
62904;DHT22;49000;50.698;13.322;2023-07-31T00:46:17;12.60;92.90
62904;DHT22;49000;50.698;13.322;2023-07-31T00:48:43;12.60;91.60
62904;DHT22;49000;50.698;13.322;2023-07-31T00:51:09;12.60;92.00
62904;DHT22;49000;50.698;13.322;2023-07-31T00:53:36;12.60;91.70
62904;DHT22;49000;50.698;13.322;2023-07-31T00:56:02;12.60;90.90
62904;DHT22;49000;50.698;13.322;2023-07-31T00:58:28;12.60;90.90
62904;DHT22;49000;50.698;13.322;2023-07-31T01:00:54;12.60;88.30
62904;DHT22;49000;50.698;13.322;2023-07-31T01:03:19;12.60;89.20
62904;DHT22;49000;50.698;13.322;2023-07-31T01:06:14;12.60;91.20
62904;DHT22;49000;50.698;13.322;2023-07-31T01:08:47;12.60;92.60
62904;DHT22;49000;50.698;13.322;2023-07-31T01:11:42;12.60;91.90
62904;DHT22;49000;50.698;13.322;2023-07-31T01:14:09;12.60;91.40
62904;DHT22;49000;50.698;13.322;2023-07-31T01:16:34;12.60;92.40
62904;DHT22;49000;50.698;13.322;2023-07-31T01:19:00;12.60;91.80
62904;DHT22;49000;50.698;13.322;2023-07-31T01:27:04;12.60;91.70
62904;DHT22;49000;50.698;13.322;2023-07-31T01:29:40;12.60;91.00
62904;DHT22;49000;50.698;13.322;2023-07-31T01:32:08;12.60;91.30
62904;DHT22;49000;50.698;13.322;2023-07-31T01:34:35;12.60;90.80
62904;DHT22;49000;50.698;13.322;2023-07-31T01:37:02;12.60;90.30
62904;DHT22;49000;50.698;13.322;2023-07-31T01:39:28;12.60;90.30
62904;DHT22;49000;50.698;13.322;2023-07-31T01:41:53;12.60;90.10
62904;DHT22;49000;50.698;13.322;2023-07-31T01:44:19;12.60;89.70
62904;DHT22;49000;50.698;13.322;2023-07-31T01:46:44;12.60;88.90
62904;DHT22;49000;50.698;13.322;2023-07-31T01:49:10;12.60;90.20
62904;DHT22;49000;50.698;13.322;2023-07-31T01:51:35;12.60;90.10
62904;DHT22;49000;50.698;13.322;2023-07-31T01:54:01;12.50;90.50
62904;DHT22;49000;50.698;13.322;2023-07-31T01:56:27;12.60;92.30
62904;DHT22;49000;50.698;13.322;2023-07-31T01:58:53;12.60;92.80
62904;DHT22;49000;50.698;13.322;2023-07-31T02:01:18;12.50;94.70
62904;DHT22;49000;50.698;13.322;2023-07-31T02:03:44;12.60;94.40
62904;DHT22;49000;50.698;13.322;2023-07-31T02:06:09;12.60;92.80
62904;DHT22;49000;50.698;13.322;2023-07-31T02:08:35;12.70;92.10
62904;DHT22;49000;50.698;13.322;2023-07-31T02:11:00;12.80;92.90
62904;DHT22;49000;50.698;13.322;2023-07-31T02:13:26;12.80;93.70
62904;DHT22;49000;50.698;13.322;2023-07-31T02:15:51;12.80;92.90
62904;DHT22;49000;50.698;13.322;2023-07-31T02:18:17;12.90;92.90
62904;DHT22;49000;50.698;13.322;2023-07-31T02:20:42;12.90;92.90
62904;DHT22;49000;50.698;13.322;2023-07-31T02:23:08;13.00;93.10
62904;DHT22;49000;50.698;13.322;2023-07-31T02:25:34;13.00;93.00
62904;DHT22;49000;50.698;13.322;2023-07-31T02:28:00;13.00;92.40
62904;DHT22;49000;50.698;13.322;2023-07-31T02:30:25;13.10;91.60
62904;DHT22;49000;50.698;13.322;2023-07-31T02:32:50;13.10;92.00
62904;DHT22;49000;50.698;13.322;2023-07-31T02:35:16;13.10;93.40
62904;DHT22;49000;50.698;13.322;2023-07-31T02:37:43;13.20;91.60
62904;DHT22;49000;50.698;13.322;2023-07-31T02:40:09;13.20;91.60
62904;DHT22;49000;50.698;13.322;2023-07-31T02:42:35;13.30;82.20
62904;DHT22;49000;50.698;13.322;2023-07-31T02:45:00;13.40;82.20
62904;DHT22;49000;50.698;13.322;2023-07-31T02:47:26;13.40;74.20
62904;DHT22;49000;50.698;13.322;2023-07-31T02:49:51;13.50;66.70
62904;DHT22;49000;50.698;13.322;2023-07-31T02:52:17;13.60;70.20
62904;DHT22;49000;50.698;13.322;2023-07-31T02:54:42;13.60;69.90
62904;DHT22;49000;50.698;13.322;2023-07-31T02:57:08;13.60;70.20
62904;DHT22;49000;50.698;13.322;2023-07-31T02:59:33;13.60;77.80
62904;DHT22;49000;50.698;13.322;2023-07-31T03:01:59;13.60;82.30
62904;DHT22;49000;50.698;13.322;2023-07-31T03:04:24;13.60;80.90
62904;DHT22;49000;50.698;13.322;2023-07-31T03:06:50;13.60;81.30
62904;DHT22;49000;50.698;13.322;2023-07-31T03:09:15;13.60;89.80
62904;DHT22;49000;50.698;13.322;2023-07-31T03:11:41;13.60;91.60
62904;DHT22;49000;50.698;13.322;2023-07-31T03:14:06;13.60;92.30
62904;DHT22;49000;50.698;13.322;2023-07-31T03:16:32;13.60;91.80
62904;DHT22;49000;50.698;13.322;2023-07-31T03:18:57;13.60;94.70
62904;DHT22;49000;50.698;13.322;2023-07-31T03:21:23;13.60;94.40
62904;DHT22;49000;50.698;13.322;2023-07-31T03:23:49;13.60;96.60
62904;DHT22;49000;50.698;13.322;2023-07-31T03:26:14;13.60;99.90
62904;DHT22;49000;50.698;13.322;2023-07-31T03:28:40;13.60;99.90
62904;DHT22;49000;50.698;13.322;2023-07-31T03:31:05;13.60;99.90
62904;DHT22;49000;50.698;13.322;2023-07-31T03:33:31;13.60;99.90
62904;DHT22;49000;50.698;13.322;2023-07-31T03:35:56;13.60;99.90
62904;DHT22;49000;50.698;13.322;2023-07-31T03:38:22;13.50;99.90
62904;DHT22;49000;50.698;13.322;2023-07-31T03:40:48;13.50;99.90
62904;DHT22;49000;50.698;13.322;2023-07-31T03:43:13;13.50;99.90
62904;DHT22;49000;50.698;13.322;2023-07-31T03:45:39;13.40;99.90
62904;DHT22;49000;50.698;13.322;2023-07-31T03:48:04;13.40;99.90
62904;DHT22;49000;50.698;13.322;2023-07-31T03:50:30;13.40;99.90
62904;DHT22;49000;50.698;13.322;2023-07-31T03:52:56;13.40;99.90
62904;DHT22;49000;50.698;13.322;2023-07-31T03:55:21;13.30;99.90
62904;DHT22;49000;50.698;13.322;2023-07-31T03:57:47;13.30;99.90
62904;DHT22;49000;50.698;13.322;2023-07-31T04:00:13;13.30;99.90
62904;DHT22;49000;50.698;13.322;2023-07-31T04:02:38;13.30;99.90
62904;DHT22;49000;50.698;13.322;2023-07-31T04:05:04;13.30;99.90
62904;DHT22;49000;50.698;13.322;2023-07-31T04:07:30;13.30;99.90
62904;DHT22;49000;50.698;13.322;2023-07-31T04:09:56;13.30;99.90
62904;DHT22;49000;50.698;13.322;2023-07-31T04:12:21;13.30;99.90
62904;DHT22;49000;50.698;13.322;2023-07-31T04:14:47;13.40;99.90
62904;DHT22;49000;50.698;13.322;2023-07-31T04:17:12;13.40;99.90
62904;DHT22;49000;50.698;13.322;2023-07-31T04:19:38;13.40;99.90
62904;DHT22;49000;50.698;13.322;2023-07-31T04:22:03;13.50;99.90
62904;DHT22;49000;50.698;13.322;2023-07-31T04:24:29;13.50;99.90
62904;DHT22;49000;50.698;13.322;2023-07-31T04:26:56;13.50;99.90
62904;DHT22;49000;50.698;13.322;2023-07-31T04:29:21;13.50;99.90
62904;DHT22;49000;50.698;13.322;2023-07-31T04:31:48;13.60;99.90
62904;DHT22;49000;50.698;13.322;2023-07-31T04:34:14;13.60;99.90
62904;DHT22;49000;50.698;13.322;2023-07-31T04:36:39;13.60;99.90
62904;DHT22;49000;50.698;13.322;2023-07-31T04:39:05;13.60;99.90
62904;DHT22;49000;50.698;13.322;2023-07-31T04:41:31;13.60;99.90
62904;DHT22;49000;50.698;13.322;2023-07-31T04:43:56;13.60;99.90
62904;DHT22;49000;50.698;13.322;2023-07-31T04:46:22;13.60;99.90
62904;DHT22;49000;50.698;13.322;2023-07-31T04:48:47;13.60;99.90
62904;DHT22;49000;50.698;13.322;2023-07-31T04:51:13;13.60;99.90
62904;DHT22;49000;50.698;13.322;2023-07-31T04:53:39;13.70;99.90
62904;DHT22;49000;50.698;13.322;2023-07-31T04:56:04;13.70;99.90
62904;DHT22;49000;50.698;13.322;2023-07-31T04:58:30;13.70;99.90
62904;DHT22;49000;50.698;13.322;2023-07-31T05:00:55;13.80;99.90
62904;DHT22;49000;50.698;13.322;2023-07-31T05:03:21;13.80;99.90
62904;DHT22;49000;50.698;13.322;2023-07-31T05:05:46;13.80;99.90
62904;DHT22;49000;50.698;13.322;2023-07-31T05:08:12;13.80;99.90
62904;DHT22;49000;50.698;13.322;2023-07-31T05:10:38;13.90;99.90
62904;DHT22;49000;50.698;13.322;2023-07-31T05:13:03;14.00;99.90
62904;DHT22;49000;50.698;13.322;2023-07-31T05:15:29;14.00;99.90
62904;DHT22;49000;50.698;13.322;2023-07-31T05:17:54;14.00;99.90
62904;DHT22;49000;50.698;13.322;2023-07-31T05:20:20;14.10;99.90
62904;DHT22;49000;50.698;13.322;2023-07-31T05:22:46;14.10;99.90
62904;DHT22;49000;50.698;13.322;2023-07-31T05:25:12;14.10;99.90
62904;DHT22;49000;50.698;13.322;2023-07-31T05:27:37;14.00;99.90
62904;DHT22;49000;50.698;13.322;2023-07-31T05:30:03;14.00;99.90
62904;DHT22;49000;50.698;13.322;2023-07-31T05:32:29;14.10;99.90
62904;DHT22;49000;50.698;13.322;2023-07-31T05:34:54;14.20;99.90
62904;DHT22;49000;50.698;13.322;2023-07-31T05:37:20;14.20;99.90
62904;DHT22;49000;50.698;13.322;2023-07-31T05:39:46;14.30;99.90
62904;DHT22;49000;50.698;13.322;2023-07-31T05:42:11;14.30;99.90
62904;DHT22;49000;50.698;13.322;2023-07-31T05:44:37;14.40;99.90
62904;DHT22;49000;50.698;13.322;2023-07-31T05:47:02;14.40;99.90
62904;DHT22;49000;50.698;13.322;2023-07-31T05:49:28;14.40;99.90
62904;DHT22;49000;50.698;13.322;2023-07-31T05:51:53;14.50;99.90
62904;DHT22;49000;50.698;13.322;2023-07-31T05:54:19;14.50;99.90
62904;DHT22;49000;50.698;13.322;2023-07-31T05:56:44;14.60;99.90
62904;DHT22;49000;50.698;13.322;2023-07-31T05:59:12;14.60;99.90
62904;DHT22;49000;50.698;13.322;2023-07-31T06:01:38;14.60;99.90
62904;DHT22;49000;50.698;13.322;2023-07-31T06:04:03;14.60;99.90
62904;DHT22;49000;50.698;13.322;2023-07-31T06:06:29;14.60;99.90
62904;DHT22;49000;50.698;13.322;2023-07-31T06:08:55;14.60;99.90
62904;DHT22;49000;50.698;13.322;2023-07-31T06:11:21;14.60;99.90
62904;DHT22;49000;50.698;13.322;2023-07-31T06:13:47;14.60;99.90
62904;DHT22;49000;50.698;13.322;2023-07-31T06:16:14;14.60;99.90
62904;DHT22;49000;50.698;13.322;2023-07-31T06:18:39;14.60;99.90
62904;DHT22;49000;50.698;13.322;2023-07-31T06:21:05;14.70;99.90
62904;DHT22;49000;50.698;13.322;2023-07-31T06:23:31;14.60;99.90
62904;DHT22;49000;50.698;13.322;2023-07-31T06:25:57;14.60;99.90
62904;DHT22;49000;50.698;13.322;2023-07-31T06:28:27;14.70;99.90
62904;DHT22;49000;50.698;13.322;2023-07-31T06:30:54;14.70;99.90
62904;DHT22;49000;50.698;13.322;2023-07-31T06:33:19;14.70;99.90
62904;DHT22;49000;50.698;13.322;2023-07-31T06:35:45;14.70;99.90
62904;DHT22;49000;50.698;13.322;2023-07-31T06:38:11;14.80;99.90
62904;DHT22;49000;50.698;13.322;2023-07-31T06:40:36;14.90;99.90
62904;DHT22;49000;50.698;13.322;2023-07-31T06:43:02;15.00;99.90
62904;DHT22;49000;50.698;13.322;2023-07-31T06:45:33;15.00;99.90
62904;DHT22;49000;50.698;13.322;2023-07-31T06:47:59;15.00;99.90
62904;DHT22;49000;50.698;13.322;2023-07-31T06:50:27;15.00;99.90
62904;DHT22;49000;50.698;13.322;2023-07-31T06:52:53;15.10;99.90
62904;DHT22;49000;50.698;13.322;2023-07-31T06:55:20;15.20;99.90
62904;DHT22;49000;50.698;13.322;2023-07-31T06:57:50;15.20;99.90
62904;DHT22;49000;50.698;13.322;2023-07-31T07:00:17;15.20;99.90
62904;DHT22;49000;50.698;13.322;2023-07-31T07:02:43;15.20;99.90
62904;DHT22;49000;50.698;13.322;2023-07-31T07:05:08;15.30;99.90
62904;DHT22;49000;50.698;13.322;2023-07-31T07:07:34;15.30;99.90
62904;DHT22;49000;50.698;13.322;2023-07-31T07:10:00;15.40;99.90
62904;DHT22;49000;50.698;13.322;2023-07-31T07:12:28;15.40;99.90
62904;DHT22;49000;50.698;13.322;2023-07-31T07:14:54;15.40;99.90
62904;DHT22;49000;50.698;13.322;2023-07-31T07:17:20;15.50;99.90
62904;DHT22;49000;50.698;13.322;2023-07-31T07:19:45;15.70;99.90
62904;DHT22;49000;50.698;13.322;2023-07-31T07:22:13;15.80;99.90
62904;DHT22;49000;50.698;13.322;2023-07-31T07:24:38;15.80;99.90
62904;DHT22;49000;50.698;13.322;2023-07-31T07:27:04;15.90;99.90
62904;DHT22;49000;50.698;13.322;2023-07-31T07:29:30;16.00;99.90
62904;DHT22;49000;50.698;13.322;2023-07-31T07:31:55;16.20;99.90
62904;DHT22;49000;50.698;13.322;2023-07-31T07:34:27;16.30;99.90
62904;DHT22;49000;50.698;13.322;2023-07-31T07:36:54;16.30;99.90
62904;DHT22;49000;50.698;13.322;2023-07-31T07:39:19;16.40;99.90
62904;DHT22;49000;50.698;13.322;2023-07-31T07:41:46;16.40;99.90
62904;DHT22;49000;50.698;13.322;2023-07-31T07:44:12;16.50;99.90
62904;DHT22;49000;50.698;13.322;2023-07-31T07:46:37;16.40;99.90
62904;DHT22;49000;50.698;13.322;2023-07-31T07:49:03;16.40;99.90
62904;DHT22;49000;50.698;13.322;2023-07-31T07:51:28;16.50;99.90
62904;DHT22;49000;50.698;13.322;2023-07-31T07:53:56;16.50;99.90
62904;DHT22;49000;50.698;13.322;2023-07-31T07:56:21;16.50;99.90
62904;DHT22;49000;50.698;13.322;2023-07-31T07:58:50;16.50;99.90
62904;DHT22;49000;50.698;13.322;2023-07-31T08:01:16;16.50;99.90
62904;DHT22;49000;50.698;13.322;2023-07-31T08:03:41;16.60;99.90
62904;DHT22;49000;50.698;13.322;2023-07-31T08:06:07;16.50;99.90
62904;DHT22;49000;50.698;13.322;2023-07-31T08:08:35;16.40;99.90
62904;DHT22;49000;50.698;13.322;2023-07-31T08:11:00;16.50;99.90
62904;DHT22;49000;50.698;13.322;2023-07-31T08:13:26;16.60;99.90
62904;DHT22;49000;50.698;13.322;2023-07-31T08:15:51;16.80;99.90
62904;DHT22;49000;50.698;13.322;2023-07-31T08:18:17;17.00;99.90
62904;DHT22;49000;50.698;13.322;2023-07-31T08:20:42;17.10;99.90
62904;DHT22;49000;50.698;13.322;2023-07-31T08:23:08;17.10;99.90
62904;DHT22;49000;50.698;13.322;2023-07-31T08:25:35;17.10;99.90
62904;DHT22;49000;50.698;13.322;2023-07-31T08:28:01;17.20;99.90
62904;DHT22;49000;50.698;13.322;2023-07-31T08:30:26;17.30;99.90
62904;DHT22;49000;50.698;13.322;2023-07-31T08:32:52;17.40;99.90
62904;DHT22;49000;50.698;13.322;2023-07-31T08:35:17;17.30;99.90
62904;DHT22;49000;50.698;13.322;2023-07-31T08:37:43;17.40;99.30
62904;DHT22;49000;50.698;13.322;2023-07-31T08:40:09;17.60;96.40
62904;DHT22;49000;50.698;13.322;2023-07-31T08:42:43;17.60;99.90
62904;DHT22;49000;50.698;13.322;2023-07-31T08:45:09;17.60;99.90
62904;DHT22;49000;50.698;13.322;2023-07-31T08:47:35;17.60;99.40
62904;DHT22;49000;50.698;13.322;2023-07-31T08:50:01;17.50;82.50
62904;DHT22;49000;50.698;13.322;2023-07-31T08:52:27;17.40;90.00
62904;DHT22;49000;50.698;13.322;2023-07-31T08:54:53;17.40;92.00
62904;DHT22;49000;50.698;13.322;2023-07-31T08:57:18;17.30;92.60
62904;DHT22;49000;50.698;13.322;2023-07-31T08:59:45;17.20;91.40
62904;DHT22;49000;50.698;13.322;2023-07-31T09:02:11;17.20;89.70
62904;DHT22;49000;50.698;13.322;2023-07-31T09:04:39;17.30;92.90
62904;DHT22;49000;50.698;13.322;2023-07-31T09:07:05;17.30;89.20
62904;DHT22;49000;50.698;13.322;2023-07-31T09:09:31;17.20;80.40
62904;DHT22;49000;50.698;13.322;2023-07-31T09:11:58;17.20;88.00
62904;DHT22;49000;50.698;13.322;2023-07-31T09:14:25;17.20;80.00
62904;DHT22;49000;50.698;13.322;2023-07-31T09:16:55;17.20;78.00
62904;DHT22;49000;50.698;13.322;2023-07-31T09:19:32;17.20;70.60
62904;DHT22;49000;50.698;13.322;2023-07-31T09:21:59;17.10;76.70
62904;DHT22;49000;50.698;13.322;2023-07-31T09:24:29;17.10;75.90
62904;DHT22;49000;50.698;13.322;2023-07-31T09:26:56;17.10;77.20
62904;DHT22;49000;50.698;13.322;2023-07-31T09:29:22;17.20;78.80
62904;DHT22;49000;50.698;13.322;2023-07-31T09:31:47;17.30;80.40
62904;DHT22;49000;50.698;13.322;2023-07-31T09:34:13;17.30;67.70
62904;DHT22;49000;50.698;13.322;2023-07-31T09:36:48;17.10;72.80
62904;DHT22;49000;50.698;13.322;2023-07-31T09:39:16;17.30;74.80
62904;DHT22;49000;50.698;13.322;2023-07-31T09:41:43;17.30;77.50
62904;DHT22;49000;50.698;13.322;2023-07-31T09:44:09;17.40;76.80
62904;DHT22;49000;50.698;13.322;2023-07-31T09:46:35;17.50;75.10
62904;DHT22;49000;50.698;13.322;2023-07-31T09:49:04;17.40;70.60
62904;DHT22;49000;50.698;13.322;2023-07-31T09:51:31;17.40;79.30
62904;DHT22;49000;50.698;13.322;2023-07-31T09:53:56;17.40;84.50
62904;DHT22;49000;50.698;13.322;2023-07-31T09:56:23;17.30;82.10
62904;DHT22;49000;50.698;13.322;2023-07-31T09:58:49;17.30;89.50
62904;DHT22;49000;50.698;13.322;2023-07-31T10:01:15;17.60;95.00
62904;DHT22;49000;50.698;13.322;2023-07-31T10:03:42;17.70;94.10
62904;DHT22;49000;50.698;13.322;2023-07-31T10:06:09;17.70;94.70
62904;DHT22;49000;50.698;13.322;2023-07-31T10:08:36;17.80;92.70
62904;DHT22;49000;50.698;13.322;2023-07-31T10:11:02;17.90;79.70
62904;DHT22;49000;50.698;13.322;2023-07-31T10:13:30;17.90;90.80
62904;DHT22;49000;50.698;13.322;2023-07-31T10:15:59;17.90;93.10
62904;DHT22;49000;50.698;13.322;2023-07-31T10:18:26;18.00;74.60
62904;DHT22;49000;50.698;13.322;2023-07-31T10:20:53;17.90;63.60
62904;DHT22;49000;50.698;13.322;2023-07-31T10:23:20;17.90;71.10
62904;DHT22;49000;50.698;13.322;2023-07-31T10:25:46;17.80;69.60
62904;DHT22;49000;50.698;13.322;2023-07-31T10:28:12;17.80;71.00
62904;DHT22;49000;50.698;13.322;2023-07-31T10:30:39;18.10;77.50
62904;DHT22;49000;50.698;13.322;2023-07-31T10:33:05;18.30;69.30
62904;DHT22;49000;50.698;13.322;2023-07-31T10:35:31;18.10;48.90
62904;DHT22;49000;50.698;13.322;2023-07-31T10:38:09;18.20;59.30
62904;DHT22;49000;50.698;13.322;2023-07-31T10:40:36;18.30;58.00
62904;DHT22;49000;50.698;13.322;2023-07-31T10:43:01;18.70;56.20
62904;DHT22;49000;50.698;13.322;2023-07-31T10:45:33;18.90;43.30
62904;DHT22;49000;50.698;13.322;2023-07-31T10:48:04;19.30;44.30
62904;DHT22;49000;50.698;13.322;2023-07-31T10:50:31;19.80;32.50
62904;DHT22;49000;50.698;13.322;2023-07-31T10:53:00;20.20;24.90
62904;DHT22;49000;50.698;13.322;2023-07-31T10:55:30;20.80;8.00
62904;DHT22;49000;50.698;13.322;2023-07-31T10:58:00;21.20;6.00
62904;DHT22;49000;50.698;13.322;2023-07-31T11:00:30;21.70;1.00
62904;DHT22;49000;50.698;13.322;2023-07-31T11:03:09;21.40;1.00
62904;DHT22;49000;50.698;13.322;2023-07-31T11:05:52;20.90;1.00
62904;DHT22;49000;50.698;13.322;2023-07-31T11:08:28;20.40;1.00
62904;DHT22;49000;50.698;13.322;2023-07-31T11:13:28;19.90;6.60
62904;DHT22;49000;50.698;13.322;2023-07-31T11:15:54;19.90;3.60
62904;DHT22;49000;50.698;13.322;2023-07-31T11:18:19;20.10;12.00
62904;DHT22;49000;50.698;13.322;2023-07-31T11:20:46;20.40;10.20
62904;DHT22;49000;50.698;13.322;2023-07-31T11:23:12;20.70;4.80
62904;DHT22;49000;50.698;13.322;2023-07-31T11:25:39;21.10;2.30
62904;DHT22;49000;50.698;13.322;2023-07-31T11:28:15;21.40;1.00
62904;DHT22;49000;50.698;13.322;2023-07-31T11:30:41;22.00;1.00
62904;DHT22;49000;50.698;13.322;2023-07-31T11:33:08;22.30;1.00
62904;DHT22;49000;50.698;13.322;2023-07-31T11:35:40;22.60;1.00
62904;DHT22;49000;50.698;13.322;2023-07-31T11:38:07;22.40;1.00
62904;DHT22;49000;50.698;13.322;2023-07-31T11:40:41;22.60;1.00
62904;DHT22;49000;50.698;13.322;2023-07-31T11:43:07;22.30;1.00
62904;DHT22;49000;50.698;13.322;2023-07-31T11:45:33;22.50;1.00
62904;DHT22;49000;50.698;13.322;2023-07-31T11:48:00;22.70;1.00
62904;DHT22;49000;50.698;13.322;2023-07-31T11:50:26;22.90;1.00
62904;DHT22;49000;50.698;13.322;2023-07-31T11:53:06;22.90;1.00
62904;DHT22;49000;50.698;13.322;2023-07-31T11:55:33;22.50;1.00
62904;DHT22;49000;50.698;13.322;2023-07-31T11:57:59;22.30;1.00
62904;DHT22;49000;50.698;13.322;2023-07-31T12:00:26;22.30;1.00
62904;DHT22;49000;50.698;13.322;2023-07-31T12:02:52;22.50;1.00
62904;DHT22;49000;50.698;13.322;2023-07-31T12:05:18;22.50;1.00
62904;DHT22;49000;50.698;13.322;2023-07-31T12:07:45;22.60;1.00
62904;DHT22;49000;50.698;13.322;2023-07-31T12:10:11;22.70;1.00
62904;DHT22;49000;50.698;13.322;2023-07-31T12:12:37;23.10;1.00
62904;DHT22;49000;50.698;13.322;2023-07-31T12:15:02;23.00;1.00
62904;DHT22;49000;50.698;13.322;2023-07-31T12:17:38;23.20;1.00
62904;DHT22;49000;50.698;13.322;2023-07-31T12:20:04;23.60;1.00
62904;DHT22;49000;50.698;13.322;2023-07-31T12:22:30;23.90;1.00
62904;DHT22;49000;50.698;13.322;2023-07-31T12:24:56;23.80;1.00
62904;DHT22;49000;50.698;13.322;2023-07-31T12:27:21;23.50;1.00
62904;DHT22;49000;50.698;13.322;2023-07-31T12:29:50;23.10;1.00
62904;DHT22;49000;50.698;13.322;2023-07-31T12:32:22;22.90;1.00
62904;DHT22;49000;50.698;13.322;2023-07-31T12:34:49;23.10;1.00
62904;DHT22;49000;50.698;13.322;2023-07-31T12:37:14;23.00;1.00
62904;DHT22;49000;50.698;13.322;2023-07-31T12:39:40;23.60;1.00
62904;DHT22;49000;50.698;13.322;2023-07-31T12:42:06;24.10;1.00
62904;DHT22;49000;50.698;13.322;2023-07-31T12:44:31;24.30;1.00
62904;DHT22;49000;50.698;13.322;2023-07-31T12:46:57;23.70;1.00
62904;DHT22;49000;50.698;13.322;2023-07-31T12:49:22;23.20;1.00
62904;DHT22;49000;50.698;13.322;2023-07-31T12:51:48;23.10;1.00
62904;DHT22;49000;50.698;13.322;2023-07-31T12:54:14;23.00;1.00
62904;DHT22;49000;50.698;13.322;2023-07-31T12:56:40;22.70;1.00
62904;DHT22;49000;50.698;13.322;2023-07-31T12:59:05;22.60;1.00
62904;DHT22;49000;50.698;13.322;2023-07-31T13:01:31;22.40;1.00
62904;DHT22;49000;50.698;13.322;2023-07-31T13:03:57;22.50;1.00
62904;DHT22;49000;50.698;13.322;2023-07-31T13:06:22;22.50;1.00
62904;DHT22;49000;50.698;13.322;2023-07-31T13:08:48;22.60;1.00
62904;DHT22;49000;50.698;13.322;2023-07-31T13:11:13;22.80;1.00
62904;DHT22;49000;50.698;13.322;2023-07-31T13:13:39;22.90;1.00
62904;DHT22;49000;50.698;13.322;2023-07-31T13:16:04;22.40;1.00
62904;DHT22;49000;50.698;13.322;2023-07-31T13:18:30;22.40;1.00
62904;DHT22;49000;50.698;13.322;2023-07-31T13:20:55;22.40;1.00
62904;DHT22;49000;50.698;13.322;2023-07-31T13:23:21;22.50;1.00
62904;DHT22;49000;50.698;13.322;2023-07-31T13:25:47;22.50;1.00
62904;DHT22;49000;50.698;13.322;2023-07-31T13:28:12;22.30;1.00
62904;DHT22;49000;50.698;13.322;2023-07-31T13:30:38;22.40;1.00
62904;DHT22;49000;50.698;13.322;2023-07-31T13:33:03;22.20;1.00
62904;DHT22;49000;50.698;13.322;2023-07-31T13:35:29;22.10;1.00
62904;DHT22;49000;50.698;13.322;2023-07-31T13:37:56;22.00;1.00
62904;DHT22;49000;50.698;13.322;2023-07-31T13:40:22;21.90;1.00
62904;DHT22;49000;50.698;13.322;2023-07-31T13:42:48;21.60;1.00
62904;DHT22;49000;50.698;13.322;2023-07-31T13:45:14;21.70;1.00
62904;DHT22;49000;50.698;13.322;2023-07-31T13:47:39;21.80;1.00
62904;DHT22;49000;50.698;13.322;2023-07-31T13:50:05;21.90;1.00
62904;DHT22;49000;50.698;13.322;2023-07-31T13:52:31;21.60;1.00
62904;DHT22;49000;50.698;13.322;2023-07-31T13:54:56;21.40;1.00
62904;DHT22;49000;50.698;13.322;2023-07-31T13:57:22;21.20;1.00
62904;DHT22;49000;50.698;13.322;2023-07-31T13:59:48;21.20;1.00
62904;DHT22;49000;50.698;13.322;2023-07-31T14:02:14;21.20;1.00
62904;DHT22;49000;50.698;13.322;2023-07-31T14:04:40;21.40;1.00
62904;DHT22;49000;50.698;13.322;2023-07-31T14:07:05;21.50;1.00
62904;DHT22;49000;50.698;13.322;2023-07-31T14:09:31;21.70;1.00
62904;DHT22;49000;50.698;13.322;2023-07-31T14:11:57;22.00;1.00
62904;DHT22;49000;50.698;13.322;2023-07-31T14:14:22;22.30;1.00
62904;DHT22;49000;50.698;13.322;2023-07-31T14:16:48;22.20;1.00
62904;DHT22;49000;50.698;13.322;2023-07-31T14:19:13;22.30;1.00
62904;DHT22;49000;50.698;13.322;2023-07-31T14:21:39;22.20;1.00
62904;DHT22;49000;50.698;13.322;2023-07-31T14:24:04;22.00;1.00
62904;DHT22;49000;50.698;13.322;2023-07-31T14:26:30;22.10;1.00
62904;DHT22;49000;50.698;13.322;2023-07-31T14:28:55;22.50;1.00
62904;DHT22;49000;50.698;13.322;2023-07-31T14:31:21;22.50;1.00
62904;DHT22;49000;50.698;13.322;2023-07-31T14:33:47;22.70;1.00
62904;DHT22;49000;50.698;13.322;2023-07-31T14:36:12;22.30;1.00
62904;DHT22;49000;50.698;13.322;2023-07-31T14:38:37;22.10;1.00
62904;DHT22;49000;50.698;13.322;2023-07-31T14:41:03;21.90;1.00
62904;DHT22;49000;50.698;13.322;2023-07-31T14:43:29;21.70;1.00
62904;DHT22;49000;50.698;13.322;2023-07-31T14:45:54;21.50;1.00
62904;DHT22;49000;50.698;13.322;2023-07-31T14:48:23;21.30;1.00
62904;DHT22;49000;50.698;13.322;2023-07-31T14:50:48;21.10;1.00
62904;DHT22;49000;50.698;13.322;2023-07-31T14:53:14;21.20;1.00
62904;DHT22;49000;50.698;13.322;2023-07-31T14:55:39;22.10;1.00
62904;DHT22;49000;50.698;13.322;2023-07-31T14:58:05;22.70;1.00
62904;DHT22;49000;50.698;13.322;2023-07-31T15:00:31;22.80;1.00
62904;DHT22;49000;50.698;13.322;2023-07-31T15:02:56;22.50;1.00
62904;DHT22;49000;50.698;13.322;2023-07-31T15:05:22;22.10;1.00
62904;DHT22;49000;50.698;13.322;2023-07-31T15:07:47;21.80;1.00
62904;DHT22;49000;50.698;13.322;2023-07-31T15:10:13;21.50;1.00
62904;DHT22;49000;50.698;13.322;2023-07-31T15:12:40;21.40;1.00
62904;DHT22;49000;50.698;13.322;2023-07-31T15:15:06;21.80;1.00
62904;DHT22;49000;50.698;13.322;2023-07-31T15:17:32;21.70;1.00
62904;DHT22;49000;50.698;13.322;2023-07-31T15:19:57;21.50;1.00
62904;DHT22;49000;50.698;13.322;2023-07-31T15:22:23;21.20;1.00